SVR2472 URSS-UGTB
Flight info
| Callsign | SVR2472 |
|---|---|
| Flight time | 0h 44m |
| Altitude | 37000 |
| Route | TABAN1C TABAN B147 BANUT L850 TAGAR DCT GIMUR |
| Aircraft | A320/M-SDE2FGHIJRUWY/SB1 |
Departure
| Time | 2026-04-24 05:03 |
|---|---|
| Airport | Sochi International Airport (URSS) |
Arrival
| Time | 2026-04-24 05:48 |
|---|---|
| Airport | Tbilisi International Airport (UGTB) |
| Time | Latitude | Longitude | Altitude | Speed | Heading |
|---|---|---|---|---|---|
| 2026-04-24 04:47 | 43.44839 | 39.94440 | 75 ft | 0 kts | 335° |
| 2026-04-24 04:53 | 43.44830 | 39.94446 | 63 ft | 4 kts | 335° |
| 2026-04-24 04:53 | 43.44805 | 39.94461 | 67 ft | 4 kts | 335° |
| 2026-04-24 04:54 | 43.44781 | 39.94476 | 66 ft | 4 kts | 339° |
| 2026-04-24 04:54 | 43.44755 | 39.94488 | 64 ft | 4 kts | 348° |
| 2026-04-24 04:54 | 43.44729 | 39.94490 | 69 ft | 4 kts | 22° |
| 2026-04-24 04:54 | 43.44718 | 39.94479 | 65 ft | 0 kts | 65° |
| 2026-04-24 04:56 | 43.44720 | 39.94485 | 65 ft | 5 kts | 65° |
| 2026-04-24 04:57 | 43.44747 | 39.94563 | 72 ft | 9 kts | 65° |
| 2026-04-24 04:57 | 43.44772 | 39.94636 | 74 ft | 7 kts | 64° |
| 2026-04-24 04:57 | 43.44777 | 39.94651 | 70 ft | 0 kts | 64° |
| 2026-04-24 04:59 | 43.44806 | 39.94737 | 72 ft | 15 kts | 65° |
| 2026-04-24 05:00 | 43.44852 | 39.94876 | 73 ft | 17 kts | 65° |
| 2026-04-24 05:00 | 43.44902 | 39.95022 | 84 ft | 17 kts | 64° |
| 2026-04-24 05:00 | 43.44956 | 39.95168 | 84 ft | 17 kts | 64° |
| 2026-04-24 05:00 | 43.45006 | 39.95316 | 92 ft | 17 kts | 65° |
| 2026-04-24 05:01 | 43.45057 | 39.95466 | 91 ft | 17 kts | 64° |
| 2026-04-24 05:01 | 43.45155 | 39.95565 | 95 ft | 19 kts | 30° |
| 2026-04-24 05:01 | 43.45256 | 39.95698 | 93 ft | 22 kts | 62° |
| 2026-04-24 05:01 | 43.45290 | 39.95847 | 96 ft | 12 kts | 143° |
| 2026-04-24 05:02 | 43.45256 | 39.95831 | 94 ft | 0 kts | 210° |
| 2026-04-24 05:02 | 43.45110 | 39.95720 | 91 ft | 67 kts | 208° |
| 2026-04-24 05:02 | 43.44468 | 39.95239 | 82 ft | 140 kts | 208° |
| 2026-04-24 05:03 | 43.43532 | 39.94540 | 593 ft | 155 kts | 205° |
| 2026-04-24 05:03 | 43.42566 | 39.93965 | 1524 ft | 147 kts | 187° |
| 2026-04-24 05:03 | 43.41537 | 39.93675 | 2280 ft | 159 kts | 187° |
| 2026-04-24 05:03 | 43.40379 | 39.93395 | 2753 ft | 179 kts | 188° |
| 2026-04-24 05:04 | 43.39121 | 39.93091 | 3383 ft | 188 kts | 189° |
| 2026-04-24 05:04 | 43.37767 | 39.92753 | 3948 ft | 209 kts | 189° |
| 2026-04-24 05:04 | 43.36252 | 39.92367 | 4555 ft | 233 kts | 190° |
| 2026-04-24 05:04 | 43.34622 | 39.91939 | 5570 ft | 242 kts | 191° |
| 2026-04-24 05:05 | 43.32955 | 39.91495 | 6694 ft | 245 kts | 191° |
| 2026-04-24 05:05 | 43.31269 | 39.91040 | 7745 ft | 251 kts | 192° |
| 2026-04-24 05:05 | 43.29524 | 39.90565 | 8643 ft | 260 kts | 193° |
| 2026-04-24 05:05 | 43.27727 | 39.90073 | 9604 ft | 267 kts | 194° |
| 2026-04-24 05:06 | 43.25879 | 39.89535 | 10425 ft | 279 kts | 199° |
| 2026-04-24 05:06 | 43.24017 | 39.88490 | 10836 ft | 300 kts | 211° |
| 2026-04-24 05:06 | 43.22247 | 39.86798 | 11151 ft | 321 kts | 223° |
| 2026-04-24 05:06 | 43.20702 | 39.84514 | 11757 ft | 330 kts | 234° |
| 2026-04-24 05:07 | 43.19366 | 39.81930 | 12593 ft | 334 kts | 236° |
| 2026-04-24 05:07 | 43.18008 | 39.79338 | 13470 ft | 337 kts | 236° |
| 2026-04-24 05:07 | 43.16603 | 39.76754 | 14263 ft | 341 kts | 232° |
| 2026-04-24 05:07 | 43.14794 | 39.74609 | 15010 ft | 350 kts | 216° |
| 2026-04-24 05:08 | 43.12529 | 39.73288 | 15792 ft | 362 kts | 200° |
| 2026-04-24 05:08 | 43.09970 | 39.72983 | 16533 ft | 379 kts | 182° |
| 2026-04-24 05:08 | 43.07365 | 39.73892 | 17227 ft | 399 kts | 161° |
| 2026-04-24 05:08 | 43.05040 | 39.76106 | 17895 ft | 420 kts | 139° |
| 2026-04-24 05:09 | 43.03387 | 39.79482 | 18520 ft | 438 kts | 116° |
| 2026-04-24 05:09 | 43.02386 | 39.83448 | 19126 ft | 444 kts | 110° |
| 2026-04-24 05:09 | 43.01453 | 39.87490 | 19727 ft | 448 kts | 110° |
| 2026-04-24 05:09 | 43.00531 | 39.91564 | 20354 ft | 451 kts | 110° |
| 2026-04-24 05:10 | 42.99602 | 39.95670 | 20957 ft | 454 kts | 111° |
| 2026-04-24 05:10 | 42.98660 | 39.99802 | 21521 ft | 458 kts | 111° |
| 2026-04-24 05:10 | 42.97731 | 40.03977 | 22070 ft | 461 kts | 110° |
| 2026-04-24 05:10 | 42.96820 | 40.08200 | 22607 ft | 465 kts | 110° |
| 2026-04-24 05:11 | 42.95920 | 40.12461 | 23134 ft | 469 kts | 110° |
| 2026-04-24 05:11 | 42.95015 | 40.16756 | 23634 ft | 472 kts | 110° |
| 2026-04-24 05:11 | 42.94096 | 40.21076 | 24037 ft | 476 kts | 111° |
| 2026-04-24 05:11 | 42.93162 | 40.25419 | 24444 ft | 479 kts | 111° |
| 2026-04-24 05:12 | 42.92210 | 40.29786 | 24844 ft | 481 kts | 111° |
| 2026-04-24 05:12 | 42.91248 | 40.34175 | 25264 ft | 484 kts | 112° |
| 2026-04-24 05:12 | 42.90288 | 40.38543 | 25614 ft | 488 kts | 112° |
| 2026-04-24 05:12 | 42.89310 | 40.42987 | 25987 ft | 491 kts | 112° |
| 2026-04-24 05:13 | 42.87338 | 40.51949 | 26739 ft | 496 kts | 112° |
| 2026-04-24 05:13 | 42.86342 | 40.56467 | 27085 ft | 499 kts | 113° |
| 2026-04-24 05:13 | 42.85342 | 40.61012 | 27475 ft | 502 kts | 113° |
| 2026-04-24 05:14 | 42.84336 | 40.65575 | 27805 ft | 504 kts | 113° |
| 2026-04-24 05:14 | 42.83319 | 40.70163 | 28136 ft | 506 kts | 113° |
| 2026-04-24 05:14 | 42.82302 | 40.74746 | 28442 ft | 509 kts | 113° |
| 2026-04-24 05:14 | 42.81271 | 40.79369 | 28740 ft | 511 kts | 114° |
| 2026-04-24 05:15 | 42.80233 | 40.84008 | 29026 ft | 513 kts | 114° |
| 2026-04-24 05:15 | 42.79190 | 40.88653 | 29251 ft | 515 kts | 114° |
| 2026-04-24 05:15 | 42.78138 | 40.93335 | 29553 ft | 517 kts | 114° |
| 2026-04-24 05:15 | 42.77098 | 40.97987 | 30208 ft | 513 kts | 115° |
| 2026-04-24 05:16 | 42.76059 | 41.02626 | 30553 ft | 513 kts | 115° |
| 2026-04-24 05:16 | 42.75014 | 41.07272 | 30817 ft | 514 kts | 114° |
| 2026-04-24 05:16 | 42.73962 | 41.11927 | 31049 ft | 516 kts | 114° |
| 2026-04-24 05:16 | 42.72904 | 41.16590 | 31351 ft | 515 kts | 114° |
| 2026-04-24 05:17 | 42.71844 | 41.21253 | 31644 ft | 515 kts | 114° |
| 2026-04-24 05:17 | 42.70781 | 41.25908 | 31934 ft | 516 kts | 115° |
| 2026-04-24 05:17 | 42.69717 | 41.30565 | 32228 ft | 517 kts | 114° |
| 2026-04-24 05:17 | 42.68651 | 41.35227 | 32546 ft | 516 kts | 114° |
| 2026-04-24 05:18 | 42.67585 | 41.39896 | 32896 ft | 516 kts | 114° |
| 2026-04-24 05:18 | 42.66520 | 41.44551 | 33263 ft | 515 kts | 114° |
| 2026-04-24 05:18 | 42.65455 | 41.49191 | 33637 ft | 514 kts | 114° |
| 2026-04-24 05:18 | 42.64389 | 41.53821 | 33975 ft | 513 kts | 114° |
| 2026-04-24 05:19 | 42.63322 | 41.58443 | 34250 ft | 514 kts | 114° |
| 2026-04-24 05:19 | 42.62246 | 41.63086 | 34505 ft | 515 kts | 114° |
| 2026-04-24 05:19 | 42.61172 | 41.67715 | 34791 ft | 515 kts | 114° |
| 2026-04-24 05:19 | 42.60095 | 41.72344 | 35085 ft | 514 kts | 113° |
| 2026-04-24 05:20 | 42.59027 | 41.76922 | 35368 ft | 513 kts | 113° |
| 2026-04-24 05:20 | 42.57950 | 41.81531 | 35652 ft | 513 kts | 113° |
| 2026-04-24 05:20 | 42.56874 | 41.86136 | 35927 ft | 512 kts | 113° |
| 2026-04-24 05:20 | 42.55797 | 41.90734 | 36205 ft | 511 kts | 112° |
| 2026-04-24 05:21 | 42.54719 | 41.95324 | 36472 ft | 510 kts | 112° |
| 2026-04-24 05:21 | 42.53641 | 41.99911 | 36739 ft | 510 kts | 112° |
| 2026-04-24 05:21 | 42.52565 | 42.04483 | 36971 ft | 509 kts | 112° |
| 2026-04-24 05:21 | 42.51484 | 42.09058 | 37075 ft | 509 kts | 112° |
| 2026-04-24 05:22 | 42.50401 | 42.13620 | 37087 ft | 509 kts | 112° |
| 2026-04-24 05:22 | 42.48236 | 42.22741 | 37089 ft | 509 kts | 112° |
| 2026-04-24 05:23 | 42.46058 | 42.31899 | 37090 ft | 510 kts | 112° |
| 2026-04-24 05:23 | 42.43881 | 42.40974 | 37088 ft | 510 kts | 112° |
| 2026-04-24 05:24 | 42.41683 | 42.50112 | 37085 ft | 510 kts | 112° |
| 2026-04-24 05:24 | 42.39485 | 42.59241 | 37075 ft | 510 kts | 113° |
| 2026-04-24 05:25 | 42.37274 | 42.68361 | 37087 ft | 510 kts | 113° |
| 2026-04-24 05:25 | 42.35060 | 42.77477 | 37100 ft | 510 kts | 113° |
| 2026-04-24 05:26 | 42.32839 | 42.86591 | 37081 ft | 510 kts | 113° |
| 2026-04-24 05:26 | 42.30607 | 42.95692 | 37106 ft | 510 kts | 113° |
| 2026-04-24 05:27 | 42.28372 | 43.04785 | 37114 ft | 510 kts | 113° |
| 2026-04-24 05:27 | 42.26144 | 43.13869 | 37108 ft | 510 kts | 113° |
| 2026-04-24 05:28 | 42.23953 | 43.22963 | 37085 ft | 510 kts | 113° |
| 2026-04-24 05:28 | 42.21756 | 43.32070 | 37102 ft | 510 kts | 113° |
| 2026-04-24 05:29 | 42.19546 | 43.41146 | 37106 ft | 509 kts | 113° |
| 2026-04-24 05:29 | 42.17325 | 43.50222 | 37110 ft | 509 kts | 113° |
| 2026-04-24 05:30 | 42.15094 | 43.59289 | 37089 ft | 510 kts | 113° |
| 2026-04-24 05:30 | 42.12869 | 43.68331 | 37030 ft | 504 kts | 113° |
| 2026-04-24 05:30 | 42.11764 | 43.72811 | 36051 ft | 504 kts | 114° |
| 2026-04-24 05:31 | 42.10653 | 43.77268 | 34325 ft | 515 kts | 115° |
| 2026-04-24 05:31 | 42.09497 | 43.81877 | 32401 ft | 526 kts | 115° |
| 2026-04-24 05:31 | 42.08314 | 43.86583 | 31031 ft | 532 kts | 115° |
| 2026-04-24 05:31 | 42.07139 | 43.91300 | 29972 ft | 529 kts | 115° |
| 2026-04-24 05:32 | 42.05981 | 43.95986 | 28843 ft | 525 kts | 115° |
| 2026-04-24 05:32 | 42.04835 | 44.00622 | 27832 ft | 520 kts | 115° |
| 2026-04-24 05:32 | 42.03697 | 44.05202 | 26944 ft | 512 kts | 115° |
| 2026-04-24 05:32 | 42.02555 | 44.09703 | 26097 ft | 503 kts | 118° |
| 2026-04-24 05:33 | 42.01064 | 44.13863 | 25331 ft | 485 kts | 129° |
| 2026-04-24 05:33 | 41.99158 | 44.17495 | 24582 ft | 469 kts | 137° |
| 2026-04-24 05:33 | 41.97132 | 44.20893 | 23871 ft | 463 kts | 137° |
| 2026-04-24 05:34 | 41.93173 | 44.27601 | 22311 ft | 453 kts | 136° |
| 2026-04-24 05:34 | 41.91231 | 44.30903 | 21546 ft | 448 kts | 136° |
| 2026-04-24 05:34 | 41.89309 | 44.34167 | 20829 ft | 444 kts | 136° |
| 2026-04-24 05:34 | 41.87398 | 44.37396 | 20114 ft | 439 kts | 136° |
| 2026-04-24 05:35 | 41.85502 | 44.40585 | 19452 ft | 435 kts | 136° |
| 2026-04-24 05:35 | 41.83618 | 44.43745 | 18803 ft | 432 kts | 136° |
| 2026-04-24 05:35 | 41.81748 | 44.46876 | 18183 ft | 428 kts | 136° |
| 2026-04-24 05:35 | 41.79890 | 44.49979 | 17524 ft | 424 kts | 136° |
| 2026-04-24 05:36 | 41.78057 | 44.53043 | 16885 ft | 419 kts | 136° |
| 2026-04-24 05:36 | 41.76247 | 44.56070 | 16252 ft | 414 kts | 136° |
| 2026-04-24 05:36 | 41.74475 | 44.59042 | 15299 ft | 402 kts | 136° |
| 2026-04-24 05:36 | 41.72747 | 44.61942 | 14143 ft | 395 kts | 136° |
| 2026-04-24 05:37 | 41.71040 | 44.64797 | 13395 ft | 388 kts | 136° |
| 2026-04-24 05:37 | 41.69386 | 44.67562 | 13206 ft | 373 kts | 136° |
| 2026-04-24 05:37 | 41.67780 | 44.70237 | 12777 ft | 365 kts | 136° |
| 2026-04-24 05:37 | 41.66199 | 44.72864 | 12230 ft | 360 kts | 135° |
| 2026-04-24 05:38 | 41.64633 | 44.75457 | 11654 ft | 357 kts | 135° |
| 2026-04-24 05:38 | 41.63085 | 44.78019 | 11238 ft | 350 kts | 135° |
| 2026-04-24 05:38 | 41.61601 | 44.80483 | 11102 ft | 329 kts | 135° |
| 2026-04-24 05:38 | 41.60230 | 44.82777 | 10905 ft | 306 kts | 135° |
| 2026-04-24 05:39 | 41.58925 | 44.84955 | 10397 ft | 296 kts | 135° |
| 2026-04-24 05:39 | 41.57646 | 44.87070 | 9789 ft | 291 kts | 135° |
| 2026-04-24 05:39 | 41.56380 | 44.89151 | 9062 ft | 287 kts | 135° |
| 2026-04-24 05:39 | 41.55118 | 44.91216 | 8285 ft | 287 kts | 133° |
| 2026-04-24 05:40 | 41.53860 | 44.93279 | 7539 ft | 286 kts | 132° |
| 2026-04-24 05:40 | 41.52625 | 44.95309 | 7297 ft | 288 kts | 131° |
| 2026-04-24 05:40 | 41.51355 | 44.97397 | 7198 ft | 291 kts | 131° |
| 2026-04-24 05:40 | 41.50078 | 44.99498 | 7081 ft | 292 kts | 131° |
| 2026-04-24 05:41 | 41.48829 | 45.01561 | 6926 ft | 279 kts | 131° |
| 2026-04-24 05:41 | 41.47777 | 45.03671 | 6793 ft | 269 kts | 113° |
| 2026-04-24 05:41 | 41.47472 | 45.06064 | 6621 ft | 260 kts | 84° |
| 2026-04-24 05:41 | 41.47966 | 45.08321 | 6359 ft | 251 kts | 57° |
| 2026-04-24 05:42 | 41.49051 | 45.10101 | 5997 ft | 247 kts | 43° |
| 2026-04-24 05:42 | 41.50253 | 45.11768 | 5523 ft | 249 kts | 39° |
| 2026-04-24 05:42 | 41.51680 | 45.12825 | 5304 ft | 224 kts | 4° |
| 2026-04-24 05:42 | 41.53093 | 45.12446 | 5006 ft | 202 kts | 323° |
| 2026-04-24 05:43 | 41.54129 | 45.11217 | 4746 ft | 198 kts | 316° |
| 2026-04-24 05:43 | 41.55109 | 45.09979 | 4475 ft | 188 kts | 316° |
| 2026-04-24 05:43 | 41.56034 | 45.08814 | 4234 ft | 178 kts | 317° |
| 2026-04-24 05:43 | 41.56902 | 45.07723 | 4025 ft | 164 kts | 316° |
| 2026-04-24 05:44 | 41.57703 | 45.06717 | 3788 ft | 152 kts | 316° |
| 2026-04-24 05:44 | 41.58201 | 45.06089 | 3653 ft | 145 kts | 317° |
| 2026-04-24 05:44 | 41.58916 | 45.05191 | 3461 ft | 138 kts | 317° |
| 2026-04-24 05:44 | 41.59595 | 45.04336 | 3264 ft | 129 kts | 317° |
| 2026-04-24 05:45 | 41.60239 | 45.03525 | 3082 ft | 126 kts | 316° |
| 2026-04-24 05:45 | 41.60868 | 45.02734 | 2903 ft | 122 kts | 315° |
| 2026-04-24 05:45 | 41.61479 | 45.01964 | 2724 ft | 119 kts | 315° |
| 2026-04-24 05:45 | 41.62074 | 45.01215 | 2563 ft | 116 kts | 316° |
| 2026-04-24 05:46 | 41.62653 | 45.00485 | 2410 ft | 114 kts | 316° |
| 2026-04-24 05:46 | 41.63227 | 44.99762 | 2286 ft | 113 kts | 315° |
| 2026-04-24 05:46 | 41.63800 | 44.99039 | 2134 ft | 113 kts | 315° |
| 2026-04-24 05:46 | 41.64373 | 44.98312 | 1984 ft | 113 kts | 315° |
| 2026-04-24 05:47 | 41.64946 | 44.97592 | 1803 ft | 112 kts | 315° |
| 2026-04-24 05:47 | 41.65509 | 44.96880 | 1676 ft | 112 kts | 315° |
| 2026-04-24 05:47 | 41.66066 | 44.96176 | 1530 ft | 106 kts | 315° |
| 2026-04-24 05:47 | 41.66498 | 44.95636 | 1522 ft | 61 kts | 317° |
| 2026-04-24 05:48 | 41.66746 | 44.95319 | 1525 ft | 39 kts | 316° |
| 2026-04-24 05:48 | 41.66877 | 44.95188 | 1523 ft | 12 kts | 1° |
| 2026-04-24 05:48 | 41.66951 | 44.95262 | 1526 ft | 19 kts | 44° |
| 2026-04-24 05:48 | 41.67073 | 44.95418 | 1519 ft | 27 kts | 47° |
| 2026-04-24 05:49 | 41.67202 | 44.95584 | 1524 ft | 21 kts | 43° |
| 2026-04-24 05:49 | 41.67231 | 44.95621 | 1524 ft | 0 kts | 43° |
| 2026-04-24 05:49 | 41.67233 | 44.95666 | 1527 ft | 7 kts | 121° |
| 2026-04-24 05:50 | 41.67196 | 44.95721 | 1523 ft | 13 kts | 134° |
| 2026-04-24 05:50 | 41.67131 | 44.95812 | 1524 ft | 12 kts | 134° |
| 2026-04-24 05:50 | 41.67068 | 44.95913 | 1527 ft | 17 kts | 116° |
| 2026-04-24 05:50 | 41.67005 | 44.96021 | 1527 ft | 13 kts | 132° |
| 2026-04-24 05:51 | 41.66958 | 44.96105 | 1525 ft | 10 kts | 95° |
| 2026-04-24 05:51 | 41.66989 | 44.96155 | 1527 ft | 5 kts | 43° |
| 2026-04-24 05:51 | 41.67002 | 44.96171 | 1522 ft | 0 kts | 43° |
| 2026-04-24 05:51 | 41.67007 | 44.96178 | 1523 ft | 0 kts | 43° |
| 2026-04-24 05:52 | 41.67010 | 44.96181 | 1524 ft | 0 kts | 43° |